sensor_id;sensor_type;location;lat;lon;timestamp;pressure;altitude;pressure_sealevel;temperature;humidity
13407;BME280;6774;48.208;10.766;2023-02-28T00:01:26;95986.88;;;-0.48;69.30
13407;BME280;6774;48.208;10.766;2023-02-28T00:03:55;95985.56;;;-0.54;69.30
13407;BME280;6774;48.208;10.766;2023-02-28T00:06:23;95982.75;;;-0.51;70.32
13407;BME280;6774;48.208;10.766;2023-02-28T00:08:51;95984.53;;;-0.51;69.38
13407;BME280;6774;48.208;10.766;2023-02-28T00:11:20;95977.50;;;-0.62;69.62
13407;BME280;6774;48.208;10.766;2023-02-28T00:13:48;95978.00;;;-0.57;69.87
13407;BME280;6774;48.208;10.766;2023-02-28T00:16:18;95983.41;;;-0.60;68.76
13407;BME280;6774;48.208;10.766;2023-02-28T00:18:46;95985.78;;;-0.57;69.25
13407;BME280;6774;48.208;10.766;2023-02-28T00:21:15;95978.63;;;-0.66;68.08
13407;BME280;6774;48.208;10.766;2023-02-28T00:23:43;95978.22;;;-0.60;68.72
13407;BME280;6774;48.208;10.766;2023-02-28T00:26:11;95982.69;;;-0.62;68.67
13407;BME280;6774;48.208;10.766;2023-02-28T00:28:45;95977.28;;;-0.59;68.58
13407;BME280;6774;48.208;10.766;2023-02-28T00:31:13;95970.97;;;-0.68;68.81
13407;BME280;6774;48.208;10.766;2023-02-28T00:33:41;95976.13;;;-0.55;68.61
13407;BME280;6774;48.208;10.766;2023-02-28T00:36:11;95980.38;;;-0.54;69.00
13407;BME280;6774;48.208;10.766;2023-02-28T00:38:40;95970.22;;;-0.57;68.61
13407;BME280;6774;48.208;10.766;2023-02-28T00:41:08;95976.56;;;-0.61;68.32
13407;BME280;6774;48.208;10.766;2023-02-28T00:43:39;95969.50;;;-0.59;68.03
13407;BME280;6774;48.208;10.766;2023-02-28T00:46:08;95970.16;;;-0.68;68.20
13407;BME280;6774;48.208;10.766;2023-02-28T00:48:36;95973.47;;;-0.66;68.56
13407;BME280;6774;48.208;10.766;2023-02-28T00:51:04;95977.41;;;-0.73;68.77
13407;BME280;6774;48.208;10.766;2023-02-28T00:53:32;95973.25;;;-0.63;68.83
13407;BME280;6774;48.208;10.766;2023-02-28T00:56:00;95977.22;;;-0.70;69.24
13407;BME280;6774;48.208;10.766;2023-02-28T00:58:29;95977.94;;;-0.68;69.30
13407;BME280;6774;48.208;10.766;2023-02-28T01:00:57;95979.09;;;-0.72;69.49
13407;BME280;6774;48.208;10.766;2023-02-28T01:03:26;95975.34;;;-0.68;68.97
13407;BME280;6774;48.208;10.766;2023-02-28T01:05:54;95975.75;;;-0.62;68.63
13407;BME280;6774;48.208;10.766;2023-02-28T01:08:22;95973.47;;;-0.66;69.42
13407;BME280;6774;48.208;10.766;2023-02-28T01:10:49;95966.63;;;-0.67;69.63
13407;BME280;6774;48.208;10.766;2023-02-28T01:13:18;95968.06;;;-0.63;69.56
13407;BME280;6774;48.208;10.766;2023-02-28T01:15:50;95975.56;;;-0.71;69.04
13407;BME280;6774;48.208;10.766;2023-02-28T01:18:19;95972.03;;;-0.70;69.23
13407;BME280;6774;48.208;10.766;2023-02-28T01:20:49;95969.84;;;-0.76;69.52
13407;BME280;6774;48.208;10.766;2023-02-28T01:23:18;95971.19;;;-0.71;69.83
13407;BME280;6774;48.208;10.766;2023-02-28T01:25:46;95965.31;;;-0.86;69.53
13407;BME280;6774;48.208;10.766;2023-02-28T01:28:14;95973.16;;;-0.74;69.15
13407;BME280;6774;48.208;10.766;2023-02-28T01:30:42;95966.03;;;-0.83;69.93
13407;BME280;6774;48.208;10.766;2023-02-28T01:33:10;95967.19;;;-0.88;70.17
13407;BME280;6774;48.208;10.766;2023-02-28T01:35:37;95963.13;;;-0.92;69.94
13407;BME280;6774;48.208;10.766;2023-02-28T01:38:07;95957.13;;;-0.92;70.04
13407;BME280;6774;48.208;10.766;2023-02-28T01:40:48;95961.50;;;-0.93;69.91
13407;BME280;6774;48.208;10.766;2023-02-28T01:43:20;95958.19;;;-0.95;70.35
13407;BME280;6774;48.208;10.766;2023-02-28T01:45:48;95953.94;;;-0.96;70.05
13407;BME280;6774;48.208;10.766;2023-02-28T01:48:16;95961.28;;;-1.02;70.06
13407;BME280;6774;48.208;10.766;2023-02-28T01:50:46;95948.69;;;-1.07;70.43
13407;BME280;6774;48.208;10.766;2023-02-28T01:53:19;95953.03;;;-1.20;70.83
13407;BME280;6774;48.208;10.766;2023-02-28T01:55:50;95949.81;;;-1.11;70.54
13407;BME280;6774;48.208;10.766;2023-02-28T01:58:20;95953.34;;;-1.12;70.59
13407;BME280;6774;48.208;10.766;2023-02-28T02:00:48;95945.19;;;-1.19;70.97
13407;BME280;6774;48.208;10.766;2023-02-28T02:03:18;95930.66;;;-1.47;71.09
13407;BME280;6774;48.208;10.766;2023-02-28T02:05:48;95933.16;;;-1.32;71.21
13407;BME280;6774;48.208;10.766;2023-02-28T02:08:19;95931.94;;;-1.27;71.14
13407;BME280;6774;48.208;10.766;2023-02-28T02:10:51;95929.72;;;-1.20;70.72
13407;BME280;6774;48.208;10.766;2023-02-28T02:13:58;95930.78;;;-1.48;71.59
13407;BME280;6774;48.208;10.766;2023-02-28T02:16:39;95927.91;;;-1.44;71.22
13407;BME280;6774;48.208;10.766;2023-02-28T02:19:30;95930.88;;;-1.50;71.39
13407;BME280;6774;48.208;10.766;2023-02-28T02:22:21;95926.44;;;-1.48;71.59
13407;BME280;6774;48.208;10.766;2023-02-28T02:25:11;95917.44;;;-1.42;71.51
13407;BME280;6774;48.208;10.766;2023-02-28T02:28:11;95920.75;;;-1.53;72.04
13407;BME280;6774;48.208;10.766;2023-02-28T02:31:01;95924.06;;;-1.51;72.03
13407;BME280;6774;48.208;10.766;2023-02-28T02:34:09;95920.03;;;-1.55;71.59
13407;BME280;6774;48.208;10.766;2023-02-28T02:36:48;95928.19;;;-1.48;71.23
13407;BME280;6774;48.208;10.766;2023-02-28T02:39:23;95926.88;;;-1.54;71.31
13407;BME280;6774;48.208;10.766;2023-02-28T02:41:59;95925.50;;;-1.47;71.05
13407;BME280;6774;48.208;10.766;2023-02-28T02:44:37;95923.34;;;-1.53;71.04
13407;BME280;6774;48.208;10.766;2023-02-28T02:47:10;95924.16;;;-1.65;71.48
13407;BME280;6774;48.208;10.766;2023-02-28T02:49:43;95923.44;;;-1.67;71.94
13407;BME280;6774;48.208;10.766;2023-02-28T02:52:14;95928.59;;;-1.67;71.55
13407;BME280;6774;48.208;10.766;2023-02-28T02:54:45;95929.66;;;-1.82;72.12
13407;BME280;6774;48.208;10.766;2023-02-28T02:57:21;95932.75;;;-1.77;71.97
13407;BME280;6774;48.208;10.766;2023-02-28T02:59:52;95926.13;;;-1.81;72.57
13407;BME280;6774;48.208;10.766;2023-02-28T03:02:23;95931.47;;;-1.97;72.62
13407;BME280;6774;48.208;10.766;2023-02-28T03:05:00;95925.09;;;-1.91;72.95
13407;BME280;6774;48.208;10.766;2023-02-28T03:07:28;95924.34;;;-1.93;72.41
13407;BME280;6774;48.208;10.766;2023-02-28T03:09:57;95922.56;;;-1.93;72.42
13407;BME280;6774;48.208;10.766;2023-02-28T03:12:33;95926.72;;;-1.90;72.34
13407;BME280;6774;48.208;10.766;2023-02-28T03:15:13;95921.63;;;-2.05;73.17
13407;BME280;6774;48.208;10.766;2023-02-28T03:17:57;95919.03;;;-2.05;72.85
13407;BME280;6774;48.208;10.766;2023-02-28T03:20:38;95930.53;;;-2.09;73.32
13407;BME280;6774;48.208;10.766;2023-02-28T03:23:13;95931.63;;;-2.13;73.29
13407;BME280;6774;48.208;10.766;2023-02-28T03:25:55;95939.00;;;-2.07;73.11
13407;BME280;6774;48.208;10.766;2023-02-28T03:28:31;95934.94;;;-2.11;73.52
13407;BME280;6774;48.208;10.766;2023-02-28T03:31:08;95938.06;;;-2.06;73.80
13407;BME280;6774;48.208;10.766;2023-02-28T03:33:43;95939.34;;;-1.98;73.63
13407;BME280;6774;48.208;10.766;2023-02-28T03:36:15;95951.34;;;-1.97;73.38
13407;BME280;6774;48.208;10.766;2023-02-28T03:38:46;95945.94;;;-1.94;73.39
13407;BME280;6774;48.208;10.766;2023-02-28T03:41:19;95955.38;;;-1.93;73.36
13407;BME280;6774;48.208;10.766;2023-02-28T03:43:51;95949.06;;;-1.89;73.24
13407;BME280;6774;48.208;10.766;2023-02-28T03:46:24;95947.59;;;-1.93;73.70
13407;BME280;6774;48.208;10.766;2023-02-28T03:48:56;95954.25;;;-1.89;73.59
13407;BME280;6774;48.208;10.766;2023-02-28T03:51:29;95953.91;;;-1.97;73.73
13407;BME280;6774;48.208;10.766;2023-02-28T03:53:59;95949.81;;;-1.87;73.66
13407;BME280;6774;48.208;10.766;2023-02-28T03:56:33;95945.78;;;-1.79;73.67
13407;BME280;6774;48.208;10.766;2023-02-28T03:59:04;95947.00;;;-1.84;73.72
13407;BME280;6774;48.208;10.766;2023-02-28T04:01:36;95945.16;;;-1.82;73.84
13407;BME280;6774;48.208;10.766;2023-02-28T04:04:05;95956.75;;;-1.75;74.13
13407;BME280;6774;48.208;10.766;2023-02-28T04:06:34;95960.25;;;-1.76;73.76
13407;BME280;6774;48.208;10.766;2023-02-28T04:09:03;95960.59;;;-1.68;74.18
13407;BME280;6774;48.208;10.766;2023-02-28T04:11:34;95959.47;;;-1.64;74.12
13407;BME280;6774;48.208;10.766;2023-02-28T04:14:03;95963.59;;;-1.61;74.20
13407;BME280;6774;48.208;10.766;2023-02-28T04:16:33;95963.56;;;-1.74;74.22
13407;BME280;6774;48.208;10.766;2023-02-28T04:19:01;95960.38;;;-1.65;74.37
13407;BME280;6774;48.208;10.766;2023-02-28T04:21:34;95961.53;;;-1.56;74.51
13407;BME280;6774;48.208;10.766;2023-02-28T04:24:03;95954.19;;;-1.50;74.29
13407;BME280;6774;48.208;10.766;2023-02-28T04:26:32;95962.66;;;-1.48;74.30
13407;BME280;6774;48.208;10.766;2023-02-28T04:29:01;95963.91;;;-1.53;75.10
13407;BME280;6774;48.208;10.766;2023-02-28T04:31:30;95966.91;;;-1.47;74.44
13407;BME280;6774;48.208;10.766;2023-02-28T04:33:58;95963.00;;;-1.52;74.75
13407;BME280;6774;48.208;10.766;2023-02-28T04:36:26;95959.06;;;-1.45;74.62
13407;BME280;6774;48.208;10.766;2023-02-28T04:38:56;95956.56;;;-1.47;74.83
13407;BME280;6774;48.208;10.766;2023-02-28T04:41:24;95956.78;;;-1.50;75.31
13407;BME280;6774;48.208;10.766;2023-02-28T04:43:53;95956.56;;;-1.47;74.99
13407;BME280;6774;48.208;10.766;2023-02-28T04:46:20;95961.97;;;-1.37;74.81
13407;BME280;6774;48.208;10.766;2023-02-28T04:48:48;95960.72;;;-1.31;75.28
13407;BME280;6774;48.208;10.766;2023-02-28T04:51:18;95973.97;;;-1.36;74.62
13407;BME280;6774;48.208;10.766;2023-02-28T04:53:47;95975.53;;;-1.33;74.69
13407;BME280;6774;48.208;10.766;2023-02-28T04:56:17;95970.97;;;-1.17;74.38
13407;BME280;6774;48.208;10.766;2023-02-28T04:58:45;95966.50;;;-1.15;74.35
13407;BME280;6774;48.208;10.766;2023-02-28T05:01:19;95965.25;;;-1.22;74.56
13407;BME280;6774;48.208;10.766;2023-02-28T05:03:47;95970.22;;;-1.19;74.86
13407;BME280;6774;48.208;10.766;2023-02-28T05:06:16;95966.50;;;-1.15;74.83
13407;BME280;6774;48.208;10.766;2023-02-28T05:08:44;95965.78;;;-1.30;74.97
13407;BME280;6774;48.208;10.766;2023-02-28T05:11:17;95966.28;;;-1.12;74.30
13407;BME280;6774;48.208;10.766;2023-02-28T05:13:47;95968.75;;;-1.10;74.09
13407;BME280;6774;48.208;10.766;2023-02-28T05:16:16;95964.63;;;-1.13;74.44
13407;BME280;6774;48.208;10.766;2023-02-28T05:18:44;95964.84;;;-1.16;74.63
13407;BME280;6774;48.208;10.766;2023-02-28T05:21:27;95964.03;;;-1.17;74.60
13407;BME280;6774;48.208;10.766;2023-02-28T05:23:56;95964.22;;;-1.20;74.37
13407;BME280;6774;48.208;10.766;2023-02-28T05:26:26;95960.59;;;-1.17;74.54
13407;BME280;6774;48.208;10.766;2023-02-28T05:28:55;95960.50;;;-1.16;74.31
13407;BME280;6774;48.208;10.766;2023-02-28T05:31:23;95964.44;;;-1.23;74.48
13407;BME280;6774;48.208;10.766;2023-02-28T05:33:51;95966.59;;;-1.04;73.89
13407;BME280;6774;48.208;10.766;2023-02-28T05:36:19;95964.63;;;-1.13;74.18
13407;BME280;6774;48.208;10.766;2023-02-28T05:38:47;95961.53;;;-1.18;74.55
13407;BME280;6774;48.208;10.766;2023-02-28T05:41:17;95964.63;;;-1.13;74.80
13407;BME280;6774;48.208;10.766;2023-02-28T05:43:47;95968.88;;;-1.12;74.43
13407;BME280;6774;48.208;10.766;2023-02-28T05:46:15;95976.53;;;-0.98;73.80
13407;BME280;6774;48.208;10.766;2023-02-28T05:48:46;95986.19;;;-1.25;73.81
13407;BME280;6774;48.208;10.766;2023-02-28T05:51:14;95974.59;;;-1.32;74.11
13407;BME280;6774;48.208;10.766;2023-02-28T05:53:42;95978.19;;;-1.22;74.33
13407;BME280;6774;48.208;10.766;2023-02-28T05:56:10;95974.81;;;-1.35;74.18
13407;BME280;6774;48.208;10.766;2023-02-28T05:58:38;95983.59;;;-1.12;73.63
13407;BME280;6774;48.208;10.766;2023-02-28T06:01:23;95987.00;;;-1.25;73.84
13407;BME280;6774;48.208;10.766;2023-02-28T06:03:52;95985.75;;;-1.32;74.25
13407;BME280;6774;48.208;10.766;2023-02-28T06:06:20;96000.91;;;-1.26;74.37
13407;BME280;6774;48.208;10.766;2023-02-28T06:08:47;96001.63;;;-1.36;74.42
13407;BME280;6774;48.208;10.766;2023-02-28T06:11:15;96000.69;;;-1.35;73.82
13407;BME280;6774;48.208;10.766;2023-02-28T06:13:43;96004.59;;;-1.30;74.03
13407;BME280;6774;48.208;10.766;2023-02-28T06:16:11;96003.38;;;-1.24;73.88
13407;BME280;6774;48.208;10.766;2023-02-28T06:18:40;96008.03;;;-1.29;74.04
13407;BME280;6774;48.208;10.766;2023-02-28T06:21:08;96009.38;;;-1.24;74.03
13407;BME280;6774;48.208;10.766;2023-02-28T06:23:35;96030.69;;;-1.20;73.63
13407;BME280;6774;48.208;10.766;2023-02-28T06:26:04;96032.28;;;-1.05;73.81
13407;BME280;6774;48.208;10.766;2023-02-28T06:28:32;96022.94;;;-1.20;73.75
13407;BME280;6774;48.208;10.766;2023-02-28T06:31:06;96038.16;;;-1.03;73.35
13407;BME280;6774;48.208;10.766;2023-02-28T06:33:34;96042.09;;;-1.10;73.46
13407;BME280;6774;48.208;10.766;2023-02-28T06:36:04;96041.69;;;-1.04;73.72
13407;BME280;6774;48.208;10.766;2023-02-28T06:38:32;96048.34;;;-1.00;73.76
13407;BME280;6774;48.208;10.766;2023-02-28T06:41:01;96046.47;;;-0.98;73.25
13407;BME280;6774;48.208;10.766;2023-02-28T06:43:31;96042.31;;;-0.88;73.46
13407;BME280;6774;48.208;10.766;2023-02-28T06:46:00;96038.81;;;-0.99;73.00
13407;BME280;6774;48.208;10.766;2023-02-28T06:48:29;96036.09;;;-0.98;72.61
13407;BME280;6774;48.208;10.766;2023-02-28T06:51:02;96038.16;;;-1.03;73.62
13407;BME280;6774;48.208;10.766;2023-02-28T06:53:31;96036.50;;;-1.04;73.02
13407;BME280;6774;48.208;10.766;2023-02-28T06:56:03;96036.72;;;-1.32;73.63
13407;BME280;6774;48.208;10.766;2023-02-28T06:58:32;96035.06;;;-1.21;73.77
13407;BME280;6774;48.208;10.766;2023-02-28T07:01:00;96037.13;;;-1.13;73.44
13407;BME280;6774;48.208;10.766;2023-02-28T07:03:28;96036.72;;;-1.07;73.17
13407;BME280;6774;48.208;10.766;2023-02-28T07:05:59;96039.81;;;-1.02;73.36
13407;BME280;6774;48.208;10.766;2023-02-28T07:08:27;96040.44;;;-1.11;73.18
13407;BME280;6774;48.208;10.766;2023-02-28T07:10:57;96041.19;;;-1.09;73.25
13407;BME280;6774;48.208;10.766;2023-02-28T07:13:25;96041.91;;;-1.07;73.89
13407;BME280;6774;48.208;10.766;2023-02-28T07:15:55;96039.00;;;-1.15;73.38
13407;BME280;6774;48.208;10.766;2023-02-28T07:18:23;96040.03;;;-1.30;73.28
13407;BME280;6774;48.208;10.766;2023-02-28T07:20:52;96046.47;;;-0.98;73.07
13407;BME280;6774;48.208;10.766;2023-02-28T07:23:20;96047.72;;;-0.91;73.50
13407;BME280;6774;48.208;10.766;2023-02-28T07:25:49;96054.44;;;-1.01;73.39
13407;BME280;6774;48.208;10.766;2023-02-28T07:28:19;96054.75;;;-0.93;72.93
13407;BME280;6774;48.208;10.766;2023-02-28T07:30:46;96059.72;;;-0.90;72.71
13407;BME280;6774;48.208;10.766;2023-02-28T07:33:14;96061.69;;;-0.93;72.44
13407;BME280;6774;48.208;10.766;2023-02-28T07:35:43;96055.59;;;-1.05;72.63
13407;BME280;6774;48.208;10.766;2023-02-28T07:38:11;96066.25;;;-0.84;72.20
13407;BME280;6774;48.208;10.766;2023-02-28T07:40:40;96063.25;;;-0.91;72.20
13407;BME280;6774;48.208;10.766;2023-02-28T07:43:07;96068.22;;;-0.88;72.46
13407;BME280;6774;48.208;10.766;2023-02-28T07:45:37;96072.25;;;-0.83;72.26
13407;BME280;6774;48.208;10.766;2023-02-28T07:48:05;96062.72;;;-0.70;72.44
13407;BME280;6774;48.208;10.766;2023-02-28T07:50:33;96065.50;;;-0.73;72.34
13407;BME280;6774;48.208;10.766;2023-02-28T07:53:01;96065.09;;;-0.93;72.54
13407;BME280;6774;48.208;10.766;2023-02-28T07:55:29;96068.00;;;-0.84;72.40
13407;BME280;6774;48.208;10.766;2023-02-28T07:57:57;96070.41;;;-0.94;72.70
13407;BME280;6774;48.208;10.766;2023-02-28T08:00:26;96072.56;;;-0.75;72.29
13407;BME280;6774;48.208;10.766;2023-02-28T08:02:57;96062.50;;;-0.67;72.30
13407;BME280;6774;48.208;10.766;2023-02-28T08:05:25;96063.66;;;-0.71;71.71
13407;BME280;6774;48.208;10.766;2023-02-28T08:07:53;96072.38;;;-0.72;72.50
13407;BME280;6774;48.208;10.766;2023-02-28T08:10:21;96082.13;;;-0.63;72.10
13407;BME280;6774;48.208;10.766;2023-02-28T08:12:49;96080.34;;;-0.75;72.06
13407;BME280;6774;48.208;10.766;2023-02-28T08:15:17;96076.31;;;-0.79;71.43
13407;BME280;6774;48.208;10.766;2023-02-28T08:17:45;96077.13;;;-0.53;72.11
13407;BME280;6774;48.208;10.766;2023-02-28T08:20:14;96081.44;;;-0.41;71.93
13407;BME280;6774;48.208;10.766;2023-02-28T08:22:42;96081.97;;;-0.49;71.42
13407;BME280;6774;48.208;10.766;2023-02-28T08:25:11;96087.69;;;-0.44;70.99
13407;BME280;6774;48.208;10.766;2023-02-28T08:27:39;96080.91;;;-0.34;71.15
13407;BME280;6774;48.208;10.766;2023-02-28T08:30:09;96084.97;;;-0.42;71.11
13407;BME280;6774;48.208;10.766;2023-02-28T08:32:37;96090.78;;;-0.39;71.31
13407;BME280;6774;48.208;10.766;2023-02-28T08:35:06;96088.19;;;-0.39;71.20
13407;BME280;6774;48.208;10.766;2023-02-28T08:37:37;96088.47;;;-0.18;70.58
13407;BME280;6774;48.208;10.766;2023-02-28T08:40:06;96098.44;;;-0.24;70.84
13407;BME280;6774;48.208;10.766;2023-02-28T08:42:34;96099.06;;;-0.34;70.59
13407;BME280;6774;48.208;10.766;2023-02-28T08:45:02;96094.06;;;-0.24;71.48
13407;BME280;6774;48.208;10.766;2023-02-28T08:47:30;96098.44;;;-0.37;70.41
13407;BME280;6774;48.208;10.766;2023-02-28T08:49:58;96099.56;;;-0.29;70.31
13407;BME280;6774;48.208;10.766;2023-02-28T08:52:26;96100.28;;;-0.14;70.90
13407;BME280;6774;48.208;10.766;2023-02-28T08:54:55;96106.88;;;-0.10;70.65
13407;BME280;6774;48.208;10.766;2023-02-28T08:57:23;96107.72;;;-0.09;70.00
13407;BME280;6774;48.208;10.766;2023-02-28T08:59:52;96104.94;;;-0.06;71.46
13407;BME280;6774;48.208;10.766;2023-02-28T09:02:20;96104.53;;;-0.13;70.47
13407;BME280;6774;48.208;10.766;2023-02-28T09:04:49;96111.25;;;-0.10;70.13
13407;BME280;6774;48.208;10.766;2023-02-28T09:07:17;96105.75;;;-0.18;69.95
13407;BME280;6774;48.208;10.766;2023-02-28T09:09:44;96104.22;;;-0.21;70.43
13407;BME280;6774;48.208;10.766;2023-02-28T09:12:23;96119.31;;;-0.02;69.84
13407;BME280;6774;48.208;10.766;2023-02-28T09:14:52;96114.44;;;0.06;69.59
13407;BME280;6774;48.208;10.766;2023-02-28T09:17:23;96114.13;;;-0.02;69.48
13407;BME280;6774;48.208;10.766;2023-02-28T09:19:56;96109.63;;;-0.24;69.26
13407;BME280;6774;48.208;10.766;2023-02-28T09:22:24;96112.34;;;-0.25;69.68
13407;BME280;6774;48.208;10.766;2023-02-28T09:24:53;96130.50;;;0.11;70.10
13407;BME280;6774;48.208;10.766;2023-02-28T09:27:22;96128.41;;;0.16;69.93
13407;BME280;6774;48.208;10.766;2023-02-28T09:29:50;96131.09;;;0.27;69.02
13407;BME280;6774;48.208;10.766;2023-02-28T09:32:18;96124.31;;;0.38;68.89
13407;BME280;6774;48.208;10.766;2023-02-28T09:34:46;96127.31;;;0.32;68.58
13407;BME280;6774;48.208;10.766;2023-02-28T09:37:14;96128.97;;;0.33;68.89
13407;BME280;6774;48.208;10.766;2023-02-28T09:39:41;96133.78;;;0.50;68.47
13407;BME280;6774;48.208;10.766;2023-02-28T09:42:18;96149.59;;;0.47;68.70
13407;BME280;6774;48.208;10.766;2023-02-28T09:44:50;96140.69;;;0.62;67.59
13407;BME280;6774;48.208;10.766;2023-02-28T09:47:25;96148.19;;;0.54;68.21
13407;BME280;6774;48.208;10.766;2023-02-28T09:49:56;96136.28;;;0.51;67.77
13407;BME280;6774;48.208;10.766;2023-02-28T09:52:29;96151.75;;;0.53;68.62
13407;BME280;6774;48.208;10.766;2023-02-28T09:55:01;96148.44;;;0.51;68.56
13407;BME280;6774;48.208;10.766;2023-02-28T09:57:32;96155.56;;;0.60;69.00
13407;BME280;6774;48.208;10.766;2023-02-28T10:00:10;96152.66;;;0.65;68.21
13407;BME280;6774;48.208;10.766;2023-02-28T10:02:54;96146.72;;;0.63;68.08
13407;BME280;6774;48.208;10.766;2023-02-28T10:05:29;96155.75;;;0.46;67.46
13407;BME280;6774;48.208;10.766;2023-02-28T10:08:03;96155.75;;;0.46;68.64
13407;BME280;6774;48.208;10.766;2023-02-28T10:10:37;96157.44;;;0.58;68.01
13407;BME280;6774;48.208;10.766;2023-02-28T10:13:13;96167.47;;;0.63;68.99
13407;BME280;6774;48.208;10.766;2023-02-28T10:15:45;96160.91;;;0.94;68.30
13407;BME280;6774;48.208;10.766;2023-02-28T10:18:20;96155.25;;;1.00;66.99
13407;BME280;6774;48.208;10.766;2023-02-28T10:20:51;96164.47;;;1.04;66.74
13407;BME280;6774;48.208;10.766;2023-02-28T10:23:22;96168.59;;;0.95;67.12
13407;BME280;6774;48.208;10.766;2023-02-28T10:25:55;96168.69;;;0.94;67.38
13407;BME280;6774;48.208;10.766;2023-02-28T10:28:25;96172.44;;;0.90;66.86
13407;BME280;6774;48.208;10.766;2023-02-28T10:30:55;96163.06;;;0.76;66.99
13407;BME280;6774;48.208;10.766;2023-02-28T10:33:28;96160.91;;;0.94;67.39
13407;BME280;6774;48.208;10.766;2023-02-28T10:35:57;96163.63;;;0.92;66.39
13407;BME280;6774;48.208;10.766;2023-02-28T10:38:28;96161.44;;;1.10;66.52
13407;BME280;6774;48.208;10.766;2023-02-28T10:41:07;96156.03;;;1.35;66.32
13407;BME280;6774;48.208;10.766;2023-02-28T10:43:35;96160.59;;;1.67;66.17
13407;BME280;6774;48.208;10.766;2023-02-28T10:46:12;96154.19;;;1.60;65.11
13407;BME280;6774;48.208;10.766;2023-02-28T10:48:44;96158.81;;;1.79;64.78
13407;BME280;6774;48.208;10.766;2023-02-28T10:51:16;96155.19;;;1.92;65.40
13407;BME280;6774;48.208;10.766;2023-02-28T10:53:48;96165.31;;;1.73;65.61
13407;BME280;6774;48.208;10.766;2023-02-28T10:56:27;96165.34;;;1.95;64.22
13407;BME280;6774;48.208;10.766;2023-02-28T10:58:57;96161.31;;;2.03;64.99
13407;BME280;6774;48.208;10.766;2023-02-28T11:01:37;96166.06;;;1.86;64.66
13407;BME280;6774;48.208;10.766;2023-02-28T11:04:17;96166.75;;;1.77;63.32
13407;BME280;6774;48.208;10.766;2023-02-28T11:06:46;96157.75;;;1.81;64.72
13407;BME280;6774;48.208;10.766;2023-02-28T11:09:20;96158.44;;;1.50;65.07
13407;BME280;6774;48.208;10.766;2023-02-28T11:11:50;96156.81;;;1.60;64.28
13407;BME280;6774;48.208;10.766;2023-02-28T11:14:21;96168.66;;;1.75;65.39
13407;BME280;6774;48.208;10.766;2023-02-28T11:16:51;96149.78;;;2.27;63.45
13407;BME280;6774;48.208;10.766;2023-02-28T11:19:23;96158.38;;;2.62;63.69
13407;BME280;6774;48.208;10.766;2023-02-28T11:21:55;96165.75;;;2.45;62.84
13407;BME280;6774;48.208;10.766;2023-02-28T11:24:27;96165.03;;;2.43;63.62
13407;BME280;6774;48.208;10.766;2023-02-28T11:26:57;96164.78;;;2.46;63.13
13407;BME280;6774;48.208;10.766;2023-02-28T11:29:27;96160.56;;;2.34;63.88
13407;BME280;6774;48.208;10.766;2023-02-28T11:32:07;96155.06;;;2.60;63.53
13407;BME280;6774;48.208;10.766;2023-02-28T11:34:40;96149.56;;;3.27;63.21
13407;BME280;6774;48.208;10.766;2023-02-28T11:37:12;96155.56;;;3.59;60.94
13407;BME280;6774;48.208;10.766;2023-02-28T11:39:41;96146.28;;;4.56;60.00
13407;BME280;6774;48.208;10.766;2023-02-28T11:42:28;96142.47;;;4.61;57.44
13407;BME280;6774;48.208;10.766;2023-02-28T11:45:12;96140.50;;;4.53;58.03
13407;BME280;6774;48.208;10.766;2023-02-28T11:47:48;96147.09;;;4.57;58.62
13407;BME280;6774;48.208;10.766;2023-02-28T11:50:31;96139.06;;;4.29;58.07
13407;BME280;6774;48.208;10.766;2023-02-28T11:53:12;96139.06;;;3.89;59.12
13407;BME280;6774;48.208;10.766;2023-02-28T11:55:44;96136.50;;;3.68;59.78
13407;BME280;6774;48.208;10.766;2023-02-28T11:58:28;96137.16;;;3.91;60.96
13407;BME280;6774;48.208;10.766;2023-02-28T12:01:09;96138.78;;;4.13;59.24
13407;BME280;6774;48.208;10.766;2023-02-28T12:03:55;96131.53;;;3.86;59.18
13407;BME280;6774;48.208;10.766;2023-02-28T12:06:30;96134.63;;;4.11;59.99
13407;BME280;6774;48.208;10.766;2023-02-28T12:09:08;96131.25;;;3.89;59.90
13407;BME280;6774;48.208;10.766;2023-02-28T12:11:48;96134.91;;;4.17;59.54
13407;BME280;6774;48.208;10.766;2023-02-28T12:14:29;96129.78;;;4.56;60.47
13407;BME280;6774;48.208;10.766;2023-02-28T12:17:13;96117.72;;;5.03;59.48
13407;BME280;6774;48.208;10.766;2023-02-28T12:19:48;96118.22;;;5.36;57.74
13407;BME280;6774;48.208;10.766;2023-02-28T12:22:28;96115.72;;;5.44;56.87
13407;BME280;6774;48.208;10.766;2023-02-28T12:25:21;96120.19;;;5.24;56.77
13407;BME280;6774;48.208;10.766;2023-02-28T12:27:51;96119.47;;;5.03;57.51
13407;BME280;6774;48.208;10.766;2023-02-28T12:30:23;96123.78;;;5.04;57.43
13407;BME280;6774;48.208;10.766;2023-02-28T12:32:55;96113.56;;;5.01;57.56
13407;BME280;6774;48.208;10.766;2023-02-28T12:35:31;96112.34;;;4.95;57.50
13407;BME280;6774;48.208;10.766;2023-02-28T12:38:04;96115.47;;;5.37;58.63
13407;BME280;6774;48.208;10.766;2023-02-28T12:40:42;96105.88;;;5.65;57.19
13407;BME280;6774;48.208;10.766;2023-02-28T12:43:12;96101.84;;;5.90;56.12
13407;BME280;6774;48.208;10.766;2023-02-28T12:45:45;96108.31;;;6.23;56.58
13407;BME280;6774;48.208;10.766;2023-02-28T12:48:19;96104.97;;;6.31;55.89
13407;BME280;6774;48.208;10.766;2023-02-28T12:50:50;96110.25;;;6.67;55.19
13407;BME280;6774;48.208;10.766;2023-02-28T12:53:23;96098.81;;;6.68;54.81
13407;BME280;6774;48.208;10.766;2023-02-28T12:56:01;96097.78;;;6.33;53.98
13407;BME280;6774;48.208;10.766;2023-02-28T12:58:37;96102.16;;;6.42;54.87
13407;BME280;6774;48.208;10.766;2023-02-28T13:01:23;96098.66;;;6.69;54.51
13407;BME280;6774;48.208;10.766;2023-02-28T13:07:08;96097.22;;;6.30;55.02
13407;BME280;6774;48.208;10.766;2023-02-28T13:09:39;96095.06;;;5.97;55.28
13407;BME280;6774;48.208;10.766;2023-02-28T13:12:13;96089.41;;;5.92;55.52
13407;BME280;6774;48.208;10.766;2023-02-28T13:14:42;96091.47;;;6.26;55.96
13407;BME280;6774;48.208;10.766;2023-02-28T13:17:11;96090.13;;;6.22;55.25
13407;BME280;6774;48.208;10.766;2023-02-28T13:19:42;96085.47;;;6.16;56.31
13407;BME280;6774;48.208;10.766;2023-02-28T13:22:19;96086.22;;;6.26;56.06
13407;BME280;6774;48.208;10.766;2023-02-28T13:24:49;96088.06;;;6.43;55.94
13407;BME280;6774;48.208;10.766;2023-02-28T13:27:34;96088.22;;;6.14;56.24
13407;BME280;6774;48.208;10.766;2023-02-28T13:33:23;96088.75;;;5.90;56.15